United Tenorio — A8UB9 — position and weather

sailwx.info

Track history (hours):
 
Tides and Currents Weather Stations Pressure Air Temp Water Temp Dewpoint Dewpoint Depression Visibility Wind Speed Wind Dir Waves Ship Positions

United Tenorio

Last reported at 2015-Apr-26 09:33 UTC. Time now 2015-Sep-04 23:17 UTC.
Position N 30°05' E 121°57'.
Warning: this ship's position is months out of date.

Length 180 m; draft 5.1 m.

Type: Cargo ship. MMSI: 636091880.

Date/timePositionNaut miles runAvg speedWind from/ knotsBaromVisibWave heightAir tempDewpointWater temp
2015-Apr-26 09:33N 30°05' E 121°57'0 0.2
2015-Apr-26 07:26N 30°05' E 121°57'4 1.0
2015-Apr-26 03:33N 30°01' E 121°57'9 8.8
2015-Apr-26 02:33N 29°56' E 122°05'9 3.5
2015-Apr-26 00:03N 29°54' E 122°15'0 0.0
2015-Apr-25 23:03N 29°54' E 122°15'0 0.0
2015-Apr-25 22:15N 29°54' E 122°15'0 0.2
2015-Apr-25 21:27N 29°54' E 122°15'0 0.1
2015-Apr-25 20:03N 29°54' E 122°15'0 0.0
2015-Apr-25 19:27N 29°54' E 122°15'0 0.0
2015-Apr-25 18:21N 29°54' E 122°15'0 0.0
2015-Apr-25 17:15N 29°54' E 122°15'0 0.1
2015-Apr-25 16:27N 29°54' E 122°15'0 0.1
2015-Apr-25 13:21N 29°54' E 122°15'0 0.0
2015-Apr-25 06:03N 29°54' E 122°15'0 0.1
2015-Apr-25 02:15N 29°54' E 122°15'0 0.0
2015-Apr-25 01:03N 29°54' E 122°15'0 0.0
2015-Apr-25 00:21N 29°54' E 122°15'0 0.0
2015-Apr-24 23:15N 29°54' E 122°15'0 0.0
2015-Apr-24 22:15N 29°54' E 122°15'0 0.0
2015-Apr-24 21:33N 29°54' E 122°15'0 0.1
2015-Apr-24 20:09N 29°54' E 122°15'0 0.1
2015-Apr-24 18:15N 29°54' E 122°15'0 0.0
2015-Apr-24 17:03N 29°54' E 122°15'0 0.0
2015-Apr-24 14:27N 29°54' E 122°15'0 0.2
2015-Apr-24 13:33N 29°54' E 122°15'0 0.0
2015-Apr-24 12:09N 29°54' E 122°15'0 0.0
2015-Apr-24 09:24N 29°54' E 122°15'0 0.1
2015-Apr-24 07:15N 29°54' E 122°15'0 0.0
2015-Apr-24 05:21N 29°54' E 122°15'0 0.0
2015-Apr-24 04:33N 29°54' E 122°15'0 0.1
2015-Apr-24 01:27N 29°54' E 122°15'0 0.0
2015-Apr-24 00:15N 29°54' E 122°15'0 0.0
2015-Apr-23 23:09N 29°54' E 122°15'0 0.0
2015-Apr-23 21:15N 29°54' E 122°15'0 0.0
2015-Apr-23 20:33N 29°54' E 122°15'0 0.1
2015-Apr-23 19:15N 29°54' E 122°15'0 0.1
2015-Apr-23 18:21N 29°54' E 122°15'0 0.0
2015-Apr-23 17:03N 29°54' E 122°15'0 0.0
2015-Apr-23 16:33N 29°54' E 122°15'0 0.0
2015-Apr-23 15:15N 29°54' E 122°15'0 0.0
2015-Apr-23 13:21N 29°54' E 122°15'0 0.1
2015-Apr-23 12:09N 29°54' E 122°15'0 0.0
2015-Apr-23 11:15N 29°54' E 122°15'0 0.0
2015-Apr-23 09:03N 29°54' E 122°15'0 0.1
2015-Apr-23 06:21N 29°54' E 122°15'0 0.0
2015-Apr-23 05:09N 29°54' E 122°15'0 0.0
2015-Apr-23 03:21N 29°54' E 122°15'0 0.0
2015-Apr-23 01:33N 29°54' E 122°15'8 7.7
2015-Apr-23 00:33N 29°46' E 122°17'8 7.5
2015-Apr-22 23:32N 29°46' E 122°26'1 1.3
2015-Apr-22 22:22N 29°47' E 122°27'0 0.0
2015-Apr-22 21:22N 29°47' E 122°27'0 0.1
2015-Apr-22 19:28N 29°47' E 122°27'0 0.0
2015-Apr-22 16:28N 29°47' E 122°27'1 0.4
2015-Apr-22 13:33N 29°47' E 122°29'1110.7
2015-Apr-22 12:33N 29°53' E 122°39'2013.7
2015-Apr-22 11:07N 30°11' E 122°48'1414.9
2015-Apr-22 10:10N 30°25' E 122°49'1314.0
2015-Apr-22 09:13N 30°38' E 122°44'10 2.5
2015-Apr-22 05:24N 30°46' E 122°37'0 0.0
2015-Apr-22 04:33N 30°45' E 122°37'0 0.0
2015-Apr-22 02:12N 30°45' E 122°37'0 0.2
2015-Apr-22 01:18N 30°45' E 122°37'0 0.0
2015-Apr-22 00:33N 30°45' E 122°37'0 0.1
2015-Apr-21 23:33N 30°45' E 122°38'0 0.0
2015-Apr-21 22:30N 30°45' E 122°38'0 0.1
2015-Apr-21 21:21N 30°45' E 122°38'0 0.1
2015-Apr-21 20:18N 30°45' E 122°38'0 0.1
2015-Apr-21 19:30N 30°46' E 122°38'0 0.1
2015-Apr-21 18:21N 30°46' E 122°37'0 0.0
2015-Apr-21 17:27N 30°46' E 122°37'0 0.1
2015-Apr-21 16:33N 30°46' E 122°37'0 0.1
2015-Apr-21 15:33N 30°45' E 122°37'0 0.0
2015-Apr-21 13:33N 30°45' E 122°37'0 0.2
2015-Apr-21 12:28N 30°45' E 122°37'0 0.1
2015-Apr-21 11:31N 30°45' E 122°38'0 0.0
2015-Apr-20 22:10N 30°45' E 122°38'0 0.0
2015-Apr-20 20:16N 30°45' E 122°38'0 0.0
2015-Apr-20 19:19N 30°45' E 122°38'59 1.6
2015-Apr-19 05:25N 29°48' E 122°55'1413.0
2015-Apr-19 04:22N 29°36' E 122°49'2513.6
2015-Apr-19 02:32N 29°13' E 122°37'  
Track history (hours):
 
Tides and Currents Weather Stations Pressure Air Temp Water Temp Dewpoint Dewpoint Depression Visibility Wind Speed Wind Dir Waves Ship Positions

United Tenorio

Last reported at 2015-Apr-26 09:33 UTC. Time now 2015-Sep-04 23:17 UTC.
Position N 30°05' E 121°57'.
Warning: this ship's position is months out of date.

Length 180 m; draft 5.1 m.

Type: Cargo ship. MMSI: 636091880.

Date/timePositionNaut miles runAvg speedWind from/ knotsBaromVisibWave heightAir tempDewpointWater temp
2015-Apr-26 09:33N 30°05' E 121°57'0 0.2
2015-Apr-26 07:26N 30°05' E 121°57'4 1.0
2015-Apr-26 03:33N 30°01' E 121°57'9 8.8
2015-Apr-26 02:33N 29°56' E 122°05'9 3.5
2015-Apr-26 00:03N 29°54' E 122°15'0 0.0
2015-Apr-25 23:03N 29°54' E 122°15'0 0.0
2015-Apr-25 22:15N 29°54' E 122°15'0 0.2
2015-Apr-25 21:27N 29°54' E 122°15'0 0.1
2015-Apr-25 20:03N 29°54' E 122°15'0 0.0
2015-Apr-25 19:27N 29°54' E 122°15'0 0.0
2015-Apr-25 18:21N 29°54' E 122°15'0 0.0
2015-Apr-25 17:15N 29°54' E 122°15'0 0.1
2015-Apr-25 16:27N 29°54' E 122°15'0 0.1
2015-Apr-25 13:21N 29°54' E 122°15'0 0.0
2015-Apr-25 06:03N 29°54' E 122°15'0 0.1
2015-Apr-25 02:15N 29°54' E 122°15'0 0.0
2015-Apr-25 01:03N 29°54' E 122°15'0 0.0
2015-Apr-25 00:21N 29°54' E 122°15'0 0.0
2015-Apr-24 23:15N 29°54' E 122°15'0 0.0
2015-Apr-24 22:15N 29°54' E 122°15'0 0.0
2015-Apr-24 21:33N 29°54' E 122°15'0 0.1
2015-Apr-24 20:09N 29°54' E 122°15'0 0.1
2015-Apr-24 18:15N 29°54' E 122°15'0 0.0
2015-Apr-24 17:03N 29°54' E 122°15'0 0.0
2015-Apr-24 14:27N 29°54' E 122°15'0 0.2
2015-Apr-24 13:33N 29°54' E 122°15'0 0.0
2015-Apr-24 12:09N 29°54' E 122°15'0 0.0
2015-Apr-24 09:24N 29°54' E 122°15'0 0.1
2015-Apr-24 07:15N 29°54' E 122°15'0 0.0
2015-Apr-24 05:21N 29°54' E 122°15'0 0.0
2015-Apr-24 04:33N 29°54' E 122°15'0 0.1
2015-Apr-24 01:27N 29°54' E 122°15'0 0.0
2015-Apr-24 00:15N 29°54' E 122°15'0 0.0
2015-Apr-23 23:09N 29°54' E 122°15'0 0.0
2015-Apr-23 21:15N 29°54' E 122°15'0 0.0
2015-Apr-23 20:33N 29°54' E 122°15'0 0.1
2015-Apr-23 19:15N 29°54' E 122°15'0 0.1
2015-Apr-23 18:21N 29°54' E 122°15'0 0.0
2015-Apr-23 17:03N 29°54' E 122°15'0 0.0
2015-Apr-23 16:33N 29°54' E 122°15'0 0.0
2015-Apr-23 15:15N 29°54' E 122°15'0 0.0
2015-Apr-23 13:21N 29°54' E 122°15'0 0.1
2015-Apr-23 12:09N 29°54' E 122°15'0 0.0
2015-Apr-23 11:15N 29°54' E 122°15'0 0.0
2015-Apr-23 09:03N 29°54' E 122°15'0 0.1
2015-Apr-23 06:21N 29°54' E 122°15'0 0.0
2015-Apr-23 05:09N 29°54' E 122°15'0 0.0
2015-Apr-23 03:21N 29°54' E 122°15'0 0.0
2015-Apr-23 01:33N 29°54' E 122°15'8 7.7
2015-Apr-23 00:33N 29°46' E 122°17'8 7.5
2015-Apr-22 23:32N 29°46' E 122°26'1 1.3
2015-Apr-22 22:22N 29°47' E 122°27'0 0.0
2015-Apr-22 21:22N 29°47' E 122°27'0 0.1
2015-Apr-22 19:28N 29°47' E 122°27'0 0.0
2015-Apr-22 16:28N 29°47' E 122°27'1 0.4
2015-Apr-22 13:33N 29°47' E 122°29'1110.7
2015-Apr-22 12:33N 29°53' E 122°39'2013.7
2015-Apr-22 11:07N 30°11' E 122°48'1414.9
2015-Apr-22 10:10N 30°25' E 122°49'1314.0
2015-Apr-22 09:13N 30°38' E 122°44'10 2.5
2015-Apr-22 05:24N 30°46' E 122°37'0 0.0
2015-Apr-22 04:33N 30°45' E 122°37'0 0.0
2015-Apr-22 02:12N 30°45' E 122°37'0 0.2
2015-Apr-22 01:18N 30°45' E 122°37'0 0.0
2015-Apr-22 00:33N 30°45' E 122°37'0 0.1
2015-Apr-21 23:33N 30°45' E 122°38'0 0.0
2015-Apr-21 22:30N 30°45' E 122°38'0 0.1
2015-Apr-21 21:21N 30°45' E 122°38'0 0.1
2015-Apr-21 20:18N 30°45' E 122°38'0 0.1
2015-Apr-21 19:30N 30°46' E 122°38'0 0.1
2015-Apr-21 18:21N 30°46' E 122°37'0 0.0
2015-Apr-21 17:27N 30°46' E 122°37'0 0.1
2015-Apr-21 16:33N 30°46' E 122°37'0 0.1
2015-Apr-21 15:33N 30°45' E 122°37'0 0.0
2015-Apr-21 13:33N 30°45' E 122°37'0 0.2
2015-Apr-21 12:28N 30°45' E 122°37'0 0.1
2015-Apr-21 11:31N 30°45' E 122°38'0 0.0
2015-Apr-20 22:10N 30°45' E 122°38'0 0.0
2015-Apr-20 20:16N 30°45' E 122°38'0 0.0
2015-Apr-20 19:19N 30°45' E 122°38'59 1.6
2015-Apr-19 05:25N 29°48' E 122°55'1413.0
2015-Apr-19 04:22N 29°36' E 122°49'2513.6
2015-Apr-19 02:32N 29°13' E 122°37'  

Dump ship's entire track history